createdAt,value
2018-08-28T00:02:21.321Z,61.39
2018-08-28T00:04:51.628Z,61.52
2018-08-28T00:07:21.948Z,63.22
2018-08-28T00:09:52.461Z,63.98
2018-08-28T00:12:22.976Z,64.03
2018-08-28T00:14:53.334Z,65.30
2018-08-28T00:17:24.167Z,65.13
2018-08-28T00:19:54.975Z,64.72
2018-08-28T00:22:25.831Z,63.82
2018-08-28T00:24:56.142Z,63.39
2018-08-28T00:27:27.072Z,63.14
2018-08-28T00:29:57.595Z,63.96
2018-08-28T00:32:27.951Z,64.31
2018-08-28T00:34:58.307Z,63.28
2018-08-28T00:37:28.717Z,63.83
2018-08-28T00:39:59.101Z,64.72
2018-08-28T00:42:29.896Z,64.53
2018-08-28T00:45:00.346Z,65.05
2018-08-28T00:47:30.914Z,64.53
2018-08-28T00:50:01.428Z,64.76
2018-08-28T00:52:32.085Z,64.79
2018-08-28T00:55:02.504Z,64.43
2018-08-28T00:57:33.095Z,64.46
2018-08-28T01:00:03.667Z,64.58
2018-08-28T01:02:33.979Z,65.15
2018-08-28T01:05:04.622Z,65.59
2018-08-28T01:07:35.167Z,65.62
2018-08-28T01:10:05.935Z,64.95
2018-08-28T01:12:36.215Z,64.46
2018-08-28T01:15:07.516Z,64.49
2018-08-28T01:17:38.008Z,64.65
2018-08-28T01:20:08.748Z,63.93
2018-08-28T01:22:39.533Z,63.87
2018-08-28T01:25:10.028Z,63.36
2018-08-28T01:27:40.760Z,63.28
2018-08-28T01:30:14.013Z,63.61
2018-08-28T01:32:44.445Z,64.47
2018-08-28T01:35:14.996Z,64.35
2018-08-28T01:37:45.357Z,63.89
2018-08-28T01:40:15.872Z,63.71
2018-08-28T01:48:46.743Z,64.95
2018-08-28T01:51:17.146Z,64.80
2018-08-28T01:53:47.771Z,64.54
2018-08-28T01:56:18.568Z,64.69
2018-08-28T01:58:48.998Z,64.91
2018-08-28T02:01:19.716Z,64.54
2018-08-28T02:03:50.324Z,64.86
2018-08-28T02:06:20.773Z,63.94
2018-08-28T02:08:51.345Z,63.49
2018-08-28T02:11:21.924Z,64.25
2018-08-28T02:13:52.424Z,63.18
2018-08-28T02:16:23.013Z,64.08
2018-08-28T02:18:53.497Z,63.21
2018-08-28T02:21:24.102Z,63.93
2018-08-28T02:23:54.741Z,63.30
2018-08-28T02:26:26.037Z,63.58
2018-08-28T02:28:56.542Z,63.73
2018-08-28T02:31:27.889Z,63.18
2018-08-28T02:33:58.623Z,63.27
2018-08-28T02:36:29.265Z,64.26
2018-08-28T02:38:59.864Z,63.89
2018-08-28T02:41:30.308Z,64.07
2018-08-28T02:44:00.940Z,64.62
2018-08-28T02:46:31.578Z,64.11
2018-08-28T02:49:02.056Z,65.06
2018-08-28T02:51:33.359Z,64.23
2018-08-28T02:54:04.474Z,64.38
2018-08-28T02:56:35.057Z,63.43
2018-08-28T02:59:05.961Z,64.26
2018-08-28T03:01:36.555Z,64.27
2018-08-28T03:04:07.434Z,64.56
2018-08-28T03:06:38.029Z,64.38
2018-08-28T03:09:09.164Z,64.64
2018-08-28T03:11:39.898Z,64.89
2018-08-28T03:14:10.337Z,64.97
2018-08-28T03:16:40.805Z,64.24
2018-08-28T03:19:11.280Z,64.12
2018-08-28T03:21:42.001Z,65.03
2018-08-28T03:24:13.782Z,65.03
2018-08-28T03:26:44.380Z,65.31
2018-08-28T03:29:15.028Z,64.20
2018-08-28T03:31:45.527Z,64.44
2018-08-28T03:34:15.941Z,63.96
2018-08-28T03:36:46.605Z,63.94
2018-08-28T03:39:17.407Z,63.89
2018-08-28T03:41:48.883Z,64.12
2018-08-28T03:44:19.423Z,63.17
2018-08-28T03:46:49.996Z,63.31
2018-08-28T03:49:20.537Z,63.55
2018-08-28T03:51:51.867Z,63.28
2018-08-28T03:54:22.823Z,63.45
2018-08-28T03:56:53.498Z,64.15
2018-08-28T03:59:24.409Z,64.83
2018-08-28T04:01:54.957Z,64.73
2018-08-28T04:04:25.985Z,64.88
2018-08-28T04:06:56.501Z,65.23
2018-08-28T04:09:27.964Z,64.87
2018-08-28T04:11:58.373Z,66.04
2018-08-28T04:14:29.015Z,65.72
2018-08-28T04:16:59.553Z,65.67
2018-08-28T04:19:30.125Z,66.07
2018-08-28T04:22:00.761Z,65.85
2018-08-28T04:24:31.433Z,65.69
2018-08-28T04:27:01.909Z,65.49
2018-08-28T04:29:32.519Z,65.29
2018-08-28T04:32:03.103Z,66.00
2018-08-28T04:34:33.848Z,65.71
2018-08-28T04:37:04.490Z,67.36
2018-08-28T04:39:34.961Z,66.59
2018-08-28T04:42:05.509Z,67.56
2018-08-28T04:44:36.157Z,67.57
2018-08-28T04:47:06.737Z,65.87
2018-08-28T04:49:37.205Z,64.74
2018-08-28T04:52:07.926Z,65.49
2018-08-28T04:54:38.464Z,65.29
2018-08-28T04:57:08.899Z,64.05
2018-08-28T04:59:39.496Z,63.93
2018-08-28T05:02:09.909Z,63.08
2018-08-28T05:04:40.216Z,62.35
2018-08-28T05:07:10.615Z,61.43
2018-08-28T05:09:40.971Z,60.71
2018-08-28T05:12:11.690Z,58.79
2018-08-28T05:14:42.088Z,57.39
2018-08-28T05:17:12.493Z,57.35
2018-08-28T05:19:42.824Z,57.51
2018-08-28T05:22:13.354Z,55.32
2018-08-28T05:24:43.809Z,56.49
2018-08-28T05:27:14.351Z,55.91
2018-08-28T05:29:45.164Z,55.08
2018-08-28T05:32:15.533Z,54.46
2018-08-28T05:34:46.497Z,54.06
2018-08-28T05:37:17.623Z,52.95
2018-08-28T05:39:48.706Z,52.25
2018-08-28T05:42:19.200Z,52.30
2018-08-28T05:44:51.111Z,52.55
2018-08-28T05:47:21.633Z,49.58
2018-08-28T05:49:52.125Z,49.54
2018-08-28T05:52:22.553Z,48.09
2018-08-28T05:54:53.206Z,50.34
2018-08-28T05:57:24.050Z,50.40
2018-08-28T05:59:55.486Z,49.34
2018-08-28T06:02:27.079Z,47.66
2018-08-28T06:04:57.995Z,49.12
2018-08-28T06:07:28.723Z,46.80
2018-08-28T06:09:59.249Z,45.52
2018-08-28T06:12:30.242Z,46.11
2018-08-28T06:15:01.392Z,46.07
2018-08-28T06:17:32.264Z,45.82
2018-08-28T06:20:02.895Z,45.00
2018-08-28T06:22:33.495Z,46.45
2018-08-28T06:25:05.142Z,47.01
2018-08-28T06:27:36.111Z,44.22
2018-08-28T06:30:10.514Z,43.78
2018-08-28T06:32:41.283Z,43.57
2018-08-28T06:35:11.979Z,42.70
2018-08-28T06:37:42.668Z,42.69
2018-08-28T06:40:13.325Z,44.46
2018-08-28T06:42:43.878Z,43.15
2018-08-28T06:45:21.835Z,41.92
2018-08-28T06:47:52.533Z,40.65
2018-08-28T06:50:28.190Z,41.13
2018-08-28T06:53:03.569Z,40.42
2018-08-28T06:55:34.192Z,40.76
2018-08-28T06:58:04.724Z,40.91
2018-08-28T07:00:35.587Z,40.02
2018-08-28T07:03:06.518Z,39.69
2018-08-28T07:05:37.145Z,37.70
2018-08-28T07:08:07.860Z,37.70
2018-08-28T07:10:38.631Z,39.05
2018-08-28T07:13:09.258Z,36.80
2018-08-28T07:15:40.001Z,37.07
2018-08-28T07:18:11.222Z,36.43
2018-08-28T07:20:51.163Z,37.35
2018-08-28T07:23:25.960Z,37.94
2018-08-28T07:25:56.603Z,36.15
2018-08-28T07:28:27.593Z,36.04
2018-08-28T07:31:01.741Z,36.37
2018-08-28T07:33:32.422Z,37.13
2018-08-28T07:36:03.173Z,37.32
2018-08-28T07:38:33.771Z,36.59
2018-08-28T07:41:04.491Z,35.27
2018-08-28T07:43:35.004Z,35.87
2018-08-28T07:46:05.847Z,35.02
2018-08-28T07:48:36.813Z,34.33
2018-08-28T07:51:07.410Z,33.80
2018-08-28T07:53:38.051Z,33.62
2018-08-28T07:56:08.811Z,33.03
2018-08-28T07:58:39.403Z,31.60
2018-08-28T08:01:09.867Z,31.57
2018-08-28T08:03:41.003Z,32.33
2018-08-28T08:06:11.454Z,29.61
2018-08-28T08:08:42.011Z,29.01
2018-08-28T08:11:13.017Z,29.93
2018-08-28T08:13:43.608Z,31.03
2018-08-28T08:16:14.231Z,32.06
2018-08-28T08:18:44.673Z,32.69
2018-08-28T08:21:15.310Z,33.62
2018-08-28T08:23:46.126Z,33.23
2018-08-28T08:26:16.805Z,32.29
2018-08-28T08:28:47.310Z,33.87
2018-08-28T08:31:18.084Z,35.04
2018-08-28T08:33:48.629Z,34.16
2018-08-28T08:36:19.038Z,32.14
2018-08-28T08:39:06.964Z,32.72
2018-08-28T08:41:37.702Z,31.81
2018-08-28T08:44:08.510Z,32.75
2018-08-28T08:46:39.171Z,32.99
2018-08-28T08:49:09.800Z,34.12
2018-08-28T08:51:40.502Z,34.53
2018-08-28T08:54:21.983Z,32.36
2018-08-28T08:56:52.569Z,33.13
2018-08-28T08:59:23.579Z,34.52
2018-08-28T09:01:54.090Z,33.22
2018-08-28T09:04:25.123Z,33.23
2018-08-28T09:06:55.536Z,32.09
2018-08-28T09:09:26.694Z,32.37
2018-08-28T09:11:57.427Z,32.28
2018-08-28T09:14:28.306Z,31.49
2018-08-28T09:16:58.863Z,33.09
2018-08-28T09:19:29.357Z,31.90
2018-08-28T09:21:59.949Z,32.25
2018-08-28T09:24:30.422Z,30.03
2018-08-28T09:27:01.050Z,29.41
2018-08-28T09:29:31.508Z,31.55
2018-08-28T09:32:02.079Z,31.66
2018-08-28T09:34:38.010Z,31.92
2018-08-28T09:37:09.381Z,31.71
2018-08-28T09:39:42.175Z,29.13
2018-08-28T09:42:14.380Z,27.68
2018-08-28T09:44:45.034Z,26.87
2018-08-28T09:47:16.218Z,28.21
2018-08-28T09:49:46.848Z,27.24
2018-08-28T09:52:17.308Z,27.06
2018-08-28T09:54:47.804Z,26.66
2018-08-28T09:57:18.549Z,26.80
2018-08-28T09:59:48.982Z,26.00
2018-08-28T10:02:19.498Z,26.37
2018-08-28T10:04:49.929Z,25.93
2018-08-28T10:07:20.197Z,28.25
2018-08-28T10:09:50.566Z,27.43
2018-08-28T10:12:21.126Z,29.45
2018-08-28T10:14:51.668Z,27.02
2018-08-28T10:17:22.065Z,27.39
2018-08-28T10:19:52.559Z,28.31
2018-08-28T10:40:24.524Z,28.51
2018-08-28T10:42:54.869Z,27.23
2018-08-28T10:45:25.610Z,26.76
2018-08-28T10:47:56.059Z,26.49
2018-08-28T10:50:27.018Z,28.58
2018-08-28T10:52:57.538Z,26.79
2018-08-28T10:55:28.420Z,26.76
2018-08-28T10:57:59.201Z,27.63
2018-08-28T11:00:29.493Z,27.29
2018-08-28T11:02:59.913Z,26.70
2018-08-28T11:05:30.193Z,27.49
2018-08-28T11:08:00.964Z,27.26
2018-08-28T11:10:31.468Z,27.27
2018-08-28T11:13:06.682Z,26.61
2018-08-28T11:15:37.119Z,29.11
2018-08-28T11:18:07.759Z,29.52
2018-08-28T11:20:38.075Z,27.66
2018-08-28T11:23:13.383Z,26.42
2018-08-28T11:25:44.199Z,26.82
2018-08-28T11:28:14.660Z,27.27
2018-08-28T11:30:45.061Z,29.78
2018-08-28T11:33:19.982Z,27.93
2018-08-28T11:36:02.222Z,27.24
2018-08-28T11:38:33.148Z,28.65
2018-08-28T11:41:03.394Z,28.23
2018-08-28T11:43:33.964Z,27.42
2018-08-28T11:46:04.567Z,28.98
2018-08-28T11:48:35.362Z,29.18
2018-08-28T11:51:05.871Z,28.19
2018-08-28T11:53:36.783Z,27.95
2018-08-28T11:56:07.219Z,26.87
2018-08-28T11:58:37.755Z,27.49
2018-08-28T12:01:08.289Z,26.85
2018-08-28T12:03:38.912Z,27.53
2018-08-28T12:06:12.174Z,28.36
2018-08-28T12:08:47.764Z,29.69
2018-08-28T12:11:18.362Z,29.50
2018-08-28T12:13:48.942Z,28.62
2018-08-28T12:16:19.234Z,29.16
2018-08-28T12:18:50.232Z,29.45
2018-08-28T12:21:20.874Z,28.19
2018-08-28T12:23:51.510Z,28.21
2018-08-28T12:39:28.451Z,31.70
2018-08-28T12:41:59.590Z,29.56
2018-08-28T12:44:29.854Z,29.59
2018-08-28T12:47:00.298Z,28.93
2018-08-28T13:07:31.212Z,27.02
2018-08-28T13:10:01.743Z,26.98
2018-08-28T13:12:32.053Z,26.51
2018-08-28T13:15:05.421Z,26.34
2018-08-28T13:17:35.722Z,25.64
2018-08-28T13:20:06.449Z,24.66
2018-08-28T13:22:36.850Z,25.54
2018-08-28T13:25:09.341Z,26.60
2018-08-28T13:27:54.705Z,26.23
2018-08-28T13:30:30.545Z,29.37
2018-08-28T13:33:02.063Z,29.34
2018-08-28T13:35:32.438Z,29.66
2018-08-28T13:38:05.431Z,31.61
2018-08-28T13:40:35.959Z,30.34
2018-08-28T13:43:06.527Z,29.14
2018-08-28T13:45:36.834Z,28.76
2018-08-28T13:48:10.305Z,29.66
2018-08-28T13:54:06.204Z,31.35
2018-08-28T13:57:00.984Z,31.10
2018-08-28T14:03:01.093Z,30.93
2018-08-28T14:05:31.441Z,31.11
2018-08-28T14:08:01.887Z,31.38
2018-08-28T14:10:33.518Z,33.12
2018-08-28T14:13:04.102Z,34.20
2018-08-28T14:15:35.116Z,33.67
2018-08-28T14:18:05.503Z,33.80
2018-08-28T14:20:37.146Z,33.30
2018-08-28T14:23:07.875Z,34.50
2018-08-28T14:25:46.043Z,35.36
2018-08-28T14:28:24.223Z,33.86
2018-08-28T14:31:02.192Z,32.90
2018-08-28T14:33:41.860Z,33.78
2018-08-28T14:36:23.258Z,33.82
2018-08-28T14:39:01.725Z,34.62
2018-08-28T14:41:38.979Z,34.67
2018-08-28T14:44:20.242Z,35.46
2018-08-28T14:47:00.061Z,36.26
2018-08-28T14:49:43.110Z,37.03
2018-08-28T14:52:19.807Z,36.73
2018-08-28T14:54:59.957Z,35.97
2018-08-28T14:57:38.286Z,36.61
2018-08-28T15:08:54.085Z,36.93
2018-08-28T15:15:10.044Z,37.30
2018-08-28T15:17:47.315Z,38.13
2018-08-28T15:20:28.515Z,38.29
2018-08-28T15:23:04.029Z,38.84
2018-08-28T15:25:39.436Z,38.41
2018-08-28T15:57:18.401Z,39.68
2018-08-28T15:59:48.745Z,39.70
2018-08-28T16:26:59.769Z,40.88
2018-08-28T16:29:36.511Z,40.78
2018-08-28T16:32:13.858Z,40.26
2018-08-28T16:34:53.602Z,40.65
2018-08-28T16:37:30.289Z,40.96
2018-08-28T16:40:07.920Z,39.76
2018-08-28T16:42:48.784Z,39.72
2018-08-28T16:45:27.199Z,40.03
2018-08-28T16:48:02.906Z,40.25
2018-08-28T16:50:38.442Z,41.30
2018-08-28T16:53:08.833Z,41.16
2018-08-28T16:55:39.563Z,41.59
2018-08-28T16:58:10.033Z,42.20
2018-08-28T17:00:40.496Z,41.92
2018-08-28T17:03:10.983Z,42.51
2018-08-28T17:05:41.450Z,41.29
2018-08-28T17:08:19.038Z,41.76
2018-08-28T17:10:59.991Z,42.49
2018-08-28T17:13:37.010Z,41.37
2018-08-28T17:16:14.483Z,42.59
2018-08-28T17:18:58.499Z,41.47
2018-08-28T17:21:44.284Z,41.56
2018-08-28T17:24:27.762Z,43.01
2018-08-28T17:27:05.326Z,43.60
2018-08-28T17:33:10.808Z,43.40
2018-08-28T17:35:45.188Z,44.03
2018-08-28T17:38:17.262Z,43.65
2018-08-28T17:40:52.801Z,44.61
2018-08-28T17:43:23.141Z,44.25
2018-08-28T17:45:53.867Z,44.76
2018-08-28T17:48:24.241Z,44.83
2018-08-28T18:00:09.131Z,45.52
2018-08-28T18:02:39.520Z,45.83
2018-08-28T18:05:10.050Z,45.87
2018-08-28T18:13:34.319Z,46.84
2018-08-28T18:16:04.807Z,48.07
2018-08-28T18:18:35.261Z,48.40
2018-08-28T18:21:05.671Z,48.41
2018-08-28T18:23:38.985Z,47.64
2018-08-28T18:26:09.273Z,48.41
2018-08-28T18:28:40.177Z,47.79
2018-08-28T18:31:11.012Z,48.31
2018-08-28T18:33:41.418Z,48.03
2018-08-28T18:36:12.159Z,48.67
2018-08-28T18:38:43.046Z,48.86
2018-08-28T18:41:14.133Z,49.17
2018-08-28T18:43:44.848Z,48.35
2018-08-28T18:46:15.596Z,48.10
2018-08-28T18:48:46.394Z,47.63
2018-08-28T18:51:16.797Z,47.89
2018-08-28T18:53:48.750Z,47.31
2018-08-28T18:56:19.057Z,47.43
2018-08-28T18:58:49.615Z,48.30
2018-08-28T19:01:19.923Z,48.38
2018-08-28T19:07:21.566Z,49.82
2018-08-28T19:09:51.889Z,50.04
2018-08-28T20:12:13.226Z,51.43
2018-08-28T20:30:33.155Z,56.26
2018-08-28T20:42:12.230Z,56.81
2018-08-28T20:48:03.167Z,55.99
2018-08-28T20:50:40.645Z,57.39
2018-08-28T20:56:26.312Z,57.04
2018-08-28T20:58:57.359Z,57.58
2018-08-28T21:01:29.639Z,58.88
2018-08-28T21:07:10.538Z,57.67
2018-08-28T21:09:40.750Z,56.93
2018-08-28T21:12:11.277Z,57.89
2018-08-28T21:14:41.529Z,58.76
2018-08-28T21:17:12.527Z,59.53
2018-08-28T21:19:43.016Z,59.76
2018-08-28T21:22:43.071Z,60.10
2018-08-28T21:25:17.314Z,59.50
2018-08-28T21:27:47.663Z,59.89
2018-08-28T21:30:21.936Z,60.01
2018-08-28T21:32:52.544Z,59.88
2018-08-28T21:35:23.658Z,60.24
2018-08-28T21:37:58.938Z,60.67
2018-08-28T21:41:06.986Z,60.49
2018-08-28T21:43:48.028Z,60.57
2018-08-28T21:46:19.208Z,60.18
2018-08-28T21:48:50.724Z,60.27
2018-08-28T21:51:21.113Z,61.00
2018-08-28T21:53:53.368Z,60.88
2018-08-28T21:56:23.821Z,60.44
2018-08-28T21:58:54.461Z,60.89
2018-08-28T22:01:25.664Z,59.80
2018-08-28T22:03:56.088Z,60.88
2018-08-28T22:06:31.494Z,61.17
2018-08-28T22:09:03.302Z,60.97
2018-08-28T22:11:33.958Z,61.11
2018-08-28T22:14:05.331Z,61.84
2018-08-28T22:16:43.895Z,61.21
2018-08-28T22:19:14.308Z,61.23
2018-08-28T22:21:44.781Z,62.40
2018-08-28T22:24:15.307Z,61.21
2018-08-28T22:26:46.863Z,61.40
2018-08-28T22:29:18.656Z,62.36
2018-08-28T22:32:12.522Z,62.40
2018-08-28T22:35:06.122Z,62.26
2018-08-28T22:38:09.892Z,62.48
2018-08-28T22:44:03.363Z,62.64
2018-08-28T22:46:33.792Z,63.22
2018-08-28T22:49:04.249Z,63.49
2018-08-28T22:51:35.529Z,63.17
2018-08-28T22:54:05.982Z,62.42
2018-08-28T22:59:35.493Z,63.09
2018-08-28T23:02:05.861Z,63.18
2018-08-28T23:04:36.242Z,62.83
2018-08-28T23:07:07.234Z,61.66
2018-08-28T23:09:37.575Z,62.49
2018-08-28T23:12:08.983Z,61.02
2018-08-28T23:14:42.248Z,61.81
2018-08-28T23:17:12.725Z,62.05
2018-08-28T23:19:44.230Z,62.11
2018-08-28T23:22:14.474Z,63.78
2018-08-28T23:24:44.727Z,63.63
2018-08-28T23:27:15.148Z,62.78
2018-08-28T23:29:45.419Z,61.87
2018-08-28T23:32:15.816Z,62.58
2018-08-28T23:34:46.478Z,62.67
2018-08-28T23:37:16.806Z,61.86
2018-08-28T23:39:47.133Z,61.92
2018-08-28T23:42:17.801Z,61.69
2018-08-28T23:44:48.112Z,61.90
2018-08-28T23:47:18.582Z,61.54
2018-08-28T23:49:49.072Z,61.68
2018-08-28T23:52:19.495Z,61.89
2018-08-28T23:54:50.545Z,61.48
2018-08-28T23:57:20.870Z,62.88
2018-08-28T23:59:54.158Z,62.61
